createdAt,value
2022-10-02T00:01:50.238Z,80.80
2022-10-02T00:04:26.960Z,81.00
2022-10-02T00:07:06.141Z,81.02
2022-10-02T00:09:44.262Z,80.79
2022-10-02T00:12:19.638Z,81.11
2022-10-02T00:15:03.341Z,80.80
2022-10-02T00:17:42.675Z,81.12
2022-10-02T00:20:25.215Z,80.77
2022-10-02T00:23:06.199Z,80.82
2022-10-02T00:25:45.891Z,80.46
2022-10-02T00:28:28.649Z,80.34
2022-10-02T00:31:29.033Z,80.46
2022-10-02T00:34:21.659Z,80.48
2022-10-02T00:37:04.966Z,80.37
2022-10-02T00:39:52.376Z,80.35
2022-10-02T00:42:50.476Z,80.41
2022-10-02T00:45:41.014Z,80.27
2022-10-02T00:48:28.990Z,80.45
2022-10-02T00:51:15.215Z,80.22
2022-10-02T00:53:57.842Z,80.24
2022-10-02T00:56:38.794Z,79.95
2022-10-02T00:59:31.517Z,80.29
2022-10-02T01:02:10.465Z,80.40
2022-10-02T01:04:44.703Z,80.38
2022-10-02T01:07:17.484Z,80.23
2022-10-02T01:09:50.623Z,80.65
2022-10-02T01:12:24.159Z,80.86
2022-10-02T01:14:57.045Z,80.53
2022-10-02T01:17:34.291Z,80.56
2022-10-02T01:20:17.744Z,80.41
2022-10-02T01:22:55.767Z,80.73
2022-10-02T01:25:30.273Z,80.66
2022-10-02T01:28:03.420Z,81.20
2022-10-02T01:30:38.318Z,81.01
2022-10-02T01:33:13.744Z,80.93
2022-10-02T01:35:47.370Z,81.15
2022-10-02T01:38:24.724Z,81.01
2022-10-02T01:41:01.100Z,81.05
2022-10-02T01:43:36.787Z,80.76
2022-10-02T01:46:26.224Z,80.81
2022-10-02T01:49:12.762Z,81.03
2022-10-02T01:52:14.343Z,80.47
2022-10-02T01:54:59.038Z,80.64
2022-10-02T01:57:43.391Z,80.38
2022-10-02T02:00:18.529Z,80.83
2022-10-02T02:02:59.408Z,80.66
2022-10-02T02:05:47.232Z,81.11
2022-10-02T02:08:29.887Z,80.73
2022-10-02T02:11:12.717Z,80.70
2022-10-02T02:13:51.160Z,80.99
2022-10-02T02:16:31.561Z,80.97
2022-10-02T02:19:09.309Z,80.49
2022-10-02T02:21:46.685Z,80.77
2022-10-02T02:24:25.952Z,80.68
2022-10-02T02:27:01.786Z,80.31
2022-10-02T02:29:39.890Z,80.74
2022-10-02T02:32:19.059Z,80.72
2022-10-02T02:34:58.313Z,80.76
2022-10-02T02:37:35.213Z,80.40
2022-10-02T02:40:13.997Z,80.33
2022-10-02T02:42:56.144Z,80.80
2022-10-02T02:45:35.071Z,80.65
2022-10-02T02:48:12.740Z,80.32
2022-10-02T02:50:51.577Z,80.56
2022-10-02T02:53:27.645Z,80.57
2022-10-02T02:56:03.116Z,80.69
2022-10-02T02:58:42.887Z,80.51
2022-10-02T03:01:17.174Z,80.48
2022-10-02T03:03:50.132Z,80.34
2022-10-02T03:06:31.679Z,80.38
2022-10-02T03:09:07.309Z,80.39
2022-10-02T03:11:53.012Z,80.23
2022-10-02T03:14:54.159Z,80.31
2022-10-02T03:17:41.484Z,80.51
2022-10-02T03:20:22.158Z,80.53
2022-10-02T03:23:04.373Z,80.61
2022-10-02T03:25:43.244Z,80.49
2022-10-02T03:28:37.384Z,80.71
2022-10-02T03:31:16.193Z,80.44
2022-10-02T03:33:53.772Z,80.29
2022-10-02T03:36:27.205Z,80.47
2022-10-02T03:41:57.392Z,80.04
2022-10-02T03:44:30.247Z,79.97
2022-10-02T03:47:03.018Z,80.15
2022-10-02T03:49:37.260Z,80.03
2022-10-02T03:52:16.416Z,79.73
2022-10-02T03:54:54.298Z,79.73
2022-10-02T03:57:27.757Z,79.75
2022-10-02T04:00:05.360Z,79.31
2022-10-02T04:02:43.611Z,79.21
2022-10-02T04:05:23.921Z,79.25
2022-10-02T04:08:01.712Z,79.55
2022-10-02T04:10:44.989Z,79.31
2022-10-02T04:13:23.581Z,79.32
2022-10-02T04:16:05.279Z,79.09
2022-10-02T04:18:43.351Z,79.39
2022-10-02T04:21:28.969Z,79.36
2022-10-02T04:24:11.045Z,79.11
2022-10-02T04:26:50.860Z,79.31
2022-10-02T04:29:27.256Z,79.14
2022-10-02T04:32:08.590Z,79.09
2022-10-02T04:34:42.176Z,79.28
2022-10-02T04:37:40.458Z,79.24
2022-10-02T04:40:34.985Z,79.04
2022-10-02T04:43:21.973Z,79.04
2022-10-02T04:46:17.616Z,78.73
2022-10-02T04:49:23.994Z,78.88
2022-10-02T04:52:10.195Z,78.74
2022-10-02T04:55:10.773Z,78.40
2022-10-02T04:58:00.096Z,78.57
2022-10-02T05:00:37.565Z,78.43
2022-10-02T05:03:33.165Z,78.40
2022-10-02T05:06:21.639Z,78.44
2022-10-02T05:09:17.422Z,78.63
2022-10-02T05:12:28.085Z,78.45
2022-10-02T05:15:27.905Z,78.50
2022-10-02T05:18:26.819Z,78.51
2022-10-02T05:21:18.774Z,78.45
2022-10-02T05:23:59.367Z,78.89
2022-10-02T05:26:55.666Z,78.40
2022-10-02T05:29:53.119Z,78.34
2022-10-02T05:32:49.662Z,78.47
2022-10-02T05:35:36.308Z,78.69
2022-10-02T05:38:22.671Z,78.71
2022-10-02T05:41:02.222Z,78.55
2022-10-02T05:43:43.508Z,78.69
2022-10-02T05:46:24.453Z,78.65
2022-10-02T05:49:00.220Z,78.86
2022-10-02T05:51:38.656Z,78.60
2022-10-02T05:54:22.369Z,78.55
2022-10-02T05:57:02.618Z,78.34
2022-10-02T05:59:42.359Z,78.11
2022-10-02T06:02:23.390Z,77.91
2022-10-02T06:05:04.513Z,78.34
2022-10-02T06:07:37.875Z,78.30
2022-10-02T06:10:16.096Z,78.12
2022-10-02T06:12:55.243Z,78.55
2022-10-02T06:15:34.738Z,78.19
2022-10-02T06:18:14.543Z,78.59
2022-10-02T06:20:53.013Z,78.42
2022-10-02T06:23:29.326Z,78.62
2022-10-02T06:26:07.901Z,78.61
2022-10-02T06:28:44.319Z,78.53
2022-10-02T06:31:22.885Z,78.80
2022-10-02T06:33:58.204Z,78.78
2022-10-02T06:36:48.547Z,78.50
2022-10-02T06:39:56.634Z,78.61
2022-10-02T06:42:40.840Z,78.85
2022-10-02T06:45:23.772Z,78.65
2022-10-02T06:48:05.578Z,78.97
2022-10-02T06:50:43.149Z,79.59
2022-10-02T06:53:47.044Z,79.22
2022-10-02T06:56:45.812Z,79.22
2022-10-02T06:59:33.036Z,78.72
2022-10-02T07:02:18.146Z,79.03
2022-10-02T07:05:04.288Z,78.92
2022-10-02T07:07:51.918Z,78.59
2022-10-02T07:10:35.743Z,78.33
2022-10-02T07:13:39.059Z,78.71
2022-10-02T07:16:32.647Z,78.01
2022-10-02T07:19:36.391Z,78.22
2022-10-02T07:22:43.829Z,77.92
2022-10-02T07:25:50.969Z,77.98
2022-10-02T07:28:32.116Z,77.70
2022-10-02T07:31:18.827Z,77.96
2022-10-02T07:34:13.169Z,78.25
2022-10-02T07:36:55.496Z,78.28
2022-10-02T07:39:40.809Z,78.55
2022-10-02T07:42:29.758Z,78.24
2022-10-02T07:45:23.306Z,78.27
2022-10-02T07:48:20.301Z,78.20
2022-10-02T07:51:03.143Z,77.67
2022-10-02T07:53:41.295Z,78.00
2022-10-02T07:56:20.186Z,78.01
2022-10-02T07:59:00.951Z,78.21
2022-10-02T08:01:38.099Z,78.50
2022-10-02T08:04:15.639Z,78.22
2022-10-02T08:06:50.026Z,77.93
2022-10-02T08:09:27.356Z,77.49
2022-10-02T08:12:04.592Z,77.54
2022-10-02T08:14:41.919Z,76.55
2022-10-02T08:17:27.925Z,76.47
2022-10-02T08:20:06.691Z,76.69
2022-10-02T08:22:45.075Z,76.56
2022-10-02T08:25:24.387Z,75.93
2022-10-02T08:28:01.342Z,75.77
2022-10-02T08:30:37.232Z,75.28
2022-10-02T08:33:17.589Z,74.78
2022-10-02T08:36:09.815Z,74.70
2022-10-02T08:38:49.445Z,74.23
2022-10-02T08:42:04.421Z,73.91
2022-10-02T08:45:08.032Z,73.92
2022-10-02T08:48:22.821Z,74.03
2022-10-02T08:51:31.177Z,74.14
2022-10-02T08:54:50.546Z,73.67
2022-10-02T08:57:46.067Z,73.60
2022-10-02T09:00:23.941Z,73.49
2022-10-02T09:03:30.044Z,73.95
2022-10-02T09:06:33.874Z,73.91
2022-10-02T09:09:57.391Z,72.90
2022-10-02T09:13:03.582Z,73.54
2022-10-02T09:15:48.457Z,74.00
2022-10-02T09:18:42.022Z,73.96
2022-10-02T09:21:20.086Z,74.35
2022-10-02T09:24:31.406Z,75.09
2022-10-02T09:27:30.144Z,73.84
2022-10-02T09:30:22.303Z,75.01
2022-10-02T09:33:31.273Z,74.60
2022-10-02T09:36:29.217Z,74.27
2022-10-02T09:39:32.233Z,74.91
2022-10-02T09:42:46.880Z,73.31
2022-10-02T09:45:53.102Z,75.21
2022-10-02T09:49:08.969Z,74.47
2022-10-02T09:52:20.728Z,74.81
2022-10-02T09:55:20.180Z,74.76
2022-10-02T09:58:33.323Z,74.22
2022-10-02T10:01:36.616Z,73.23
2022-10-02T10:05:07.187Z,73.19
2022-10-02T10:08:31.722Z,73.08
2022-10-02T10:11:39.867Z,72.12
2022-10-02T10:15:00.644Z,72.55
2022-10-02T10:18:11.012Z,72.73
2022-10-02T10:21:06.700Z,72.63
2022-10-02T10:24:19.175Z,72.28
2022-10-02T10:27:29.384Z,71.96
2022-10-02T10:30:33.201Z,72.81
2022-10-02T10:33:41.370Z,73.51
2022-10-02T10:36:49.065Z,74.46
2022-10-02T10:39:52.415Z,75.76
2022-10-02T10:43:18.964Z,76.14
2022-10-02T10:46:15.868Z,77.35
2022-10-02T10:49:31.919Z,78.04
2022-10-02T10:52:16.231Z,78.62
2022-10-02T10:55:05.968Z,77.06
2022-10-02T10:57:55.366Z,78.20
2022-10-02T11:00:39.092Z,78.81
2022-10-02T11:03:53.629Z,79.42
2022-10-02T11:07:08.353Z,77.44
2022-10-02T11:10:16.802Z,77.83
2022-10-02T11:13:03.221Z,78.08
2022-10-02T11:16:20.736Z,78.81
2022-10-02T11:19:11.213Z,77.82
2022-10-02T11:22:12.731Z,77.59
2022-10-02T11:25:19.720Z,77.09
2022-10-02T11:28:15.465Z,75.86
2022-10-02T11:30:55.600Z,75.70
2022-10-02T11:33:44.610Z,76.29
2022-10-02T11:36:45.972Z,76.40
2022-10-02T11:39:44.352Z,77.08
2022-10-02T11:42:43.625Z,76.85
2022-10-02T11:45:37.186Z,77.00
2022-10-02T11:48:33.209Z,76.97
2022-10-02T11:51:41.970Z,77.46
2022-10-02T11:54:46.841Z,77.76
2022-10-02T11:57:32.248Z,77.76
2022-10-02T12:00:16.146Z,77.07
2022-10-02T12:02:57.490Z,75.83
2022-10-02T12:05:53.489Z,75.64
2022-10-02T12:08:35.160Z,75.02
2022-10-02T12:11:14.182Z,76.49
2022-10-02T12:14:01.231Z,75.02
2022-10-02T12:16:48.851Z,75.39
2022-10-02T12:20:01.668Z,75.18
2022-10-02T12:23:02.013Z,75.39
2022-10-02T12:25:59.305Z,75.95
2022-10-02T12:28:43.941Z,75.84
2022-10-02T12:31:22.395Z,74.29
2022-10-02T12:34:01.845Z,74.90
2022-10-02T12:36:48.187Z,74.34
2022-10-02T12:39:36.902Z,74.33
2022-10-02T12:42:32.758Z,74.23
2022-10-02T12:45:49.448Z,73.88
2022-10-02T12:48:46.898Z,73.05
2022-10-02T12:51:46.696Z,72.96
2022-10-02T12:54:57.006Z,71.84
2022-10-02T12:58:04.115Z,72.62
2022-10-02T13:01:04.339Z,72.44
2022-10-02T13:04:06.826Z,72.62
2022-10-02T13:07:31.253Z,72.89
2022-10-02T13:10:17.774Z,72.37
2022-10-02T13:13:07.382Z,72.92
2022-10-02T13:15:54.781Z,73.67
2022-10-02T13:19:00.742Z,74.46
2022-10-02T13:21:47.374Z,73.26
2022-10-02T13:24:38.541Z,73.79
2022-10-02T13:27:31.355Z,72.67
2022-10-02T13:30:15.602Z,72.45
2022-10-02T13:33:08.462Z,72.99
2022-10-02T13:36:06.028Z,72.36
2022-10-02T13:39:04.760Z,72.37
2022-10-02T13:41:50.904Z,71.62
2022-10-02T13:44:35.723Z,71.25
2022-10-02T13:47:25.086Z,70.71
2022-10-02T13:50:17.406Z,70.51
2022-10-02T13:53:23.031Z,69.68
2022-10-02T13:56:09.135Z,71.50
2022-10-02T13:59:06.113Z,72.29
2022-10-02T14:01:55.107Z,71.90
2022-10-02T14:04:46.305Z,72.51
2022-10-02T14:07:56.422Z,71.49
2022-10-02T14:10:46.755Z,71.27
2022-10-02T14:13:32.503Z,71.61
2022-10-02T14:16:25.854Z,70.99
2022-10-02T14:19:25.006Z,70.54
2022-10-02T14:22:12.642Z,69.74
2022-10-02T14:25:04.221Z,69.73
2022-10-02T14:28:06.710Z,70.08
2022-10-02T14:30:55.147Z,69.51
2022-10-02T14:33:45.033Z,68.67
2022-10-02T14:36:26.536Z,68.81
2022-10-02T14:39:22.252Z,67.12
2022-10-02T14:42:10.340Z,67.73
2022-10-02T14:45:21.977Z,69.14
2022-10-02T14:48:13.652Z,69.09
2022-10-02T14:50:56.805Z,70.81
2022-10-02T14:53:49.517Z,68.81
2022-10-02T14:56:47.186Z,68.65
2022-10-02T14:59:48.784Z,68.97
2022-10-02T15:02:55.400Z,68.83
2022-10-02T15:05:52.729Z,68.36
2022-10-02T15:08:35.286Z,68.12
2022-10-02T15:11:22.775Z,68.33
2022-10-02T15:14:01.499Z,67.78
2022-10-02T15:17:06.938Z,66.89
2022-10-02T15:19:50.682Z,67.36
2022-10-02T15:22:33.508Z,67.12
2022-10-02T15:25:18.113Z,67.34
2022-10-02T15:28:34.523Z,67.40
2022-10-02T15:31:07.726Z,67.95
2022-10-02T15:33:46.606Z,67.40
2022-10-02T15:36:46.950Z,66.74
2022-10-02T15:39:39.385Z,66.10
2022-10-02T15:42:17.019Z,67.01
2022-10-02T15:45:20.609Z,66.11
2022-10-02T15:48:08.245Z,66.02
2022-10-02T15:50:51.975Z,66.81
2022-10-02T15:53:38.695Z,66.55
2022-10-02T15:56:43.932Z,64.55
2022-10-02T15:59:37.391Z,66.23
2022-10-02T16:02:27.678Z,66.66
2022-10-02T16:05:15.670Z,66.79
2022-10-02T16:08:08.483Z,66.41
2022-10-02T16:11:02.838Z,66.67
2022-10-02T16:13:47.533Z,66.92
2022-10-02T16:16:35.558Z,67.29
2022-10-02T16:19:20.838Z,67.24
2022-10-02T16:22:08.219Z,67.15
2022-10-02T16:24:55.687Z,67.40
2022-10-02T16:27:52.406Z,67.25
2022-10-02T16:30:26.748Z,68.11
2022-10-02T16:33:10.329Z,67.29
2022-10-02T16:36:08.700Z,67.40
2022-10-02T16:38:50.490Z,67.51
2022-10-02T16:41:41.353Z,66.61
2022-10-02T16:44:45.017Z,67.81
2022-10-02T16:47:28.673Z,67.80
2022-10-02T16:50:14.791Z,68.10
2022-10-02T16:52:54.119Z,67.68
2022-10-02T16:55:33.774Z,67.10
2022-10-02T16:58:21.810Z,67.30
2022-10-02T17:00:59.443Z,67.98
2022-10-02T17:03:36.451Z,67.68
2022-10-02T17:06:16.891Z,67.45
2022-10-02T17:08:56.122Z,67.37
2022-10-02T17:11:35.790Z,67.26
2022-10-02T17:14:15.180Z,67.20
2022-10-02T17:17:01.900Z,67.59
2022-10-02T17:19:45.978Z,67.92
2022-10-02T17:22:28.855Z,68.13
2022-10-02T17:25:08.169Z,68.00
2022-10-02T17:27:49.691Z,68.18
2022-10-02T17:30:27.053Z,68.63
2022-10-02T17:33:16.180Z,68.02
2022-10-02T17:35:57.503Z,68.03
2022-10-02T17:39:03.567Z,68.28
2022-10-02T17:41:50.962Z,68.41
2022-10-02T17:44:45.001Z,68.05
2022-10-02T17:47:33.735Z,68.30
2022-10-02T17:50:20.736Z,68.33
2022-10-02T17:53:37.127Z,68.50
2022-10-02T17:56:30.575Z,68.76
2022-10-02T17:59:32.183Z,68.76
2022-10-02T18:02:13.599Z,68.45
2022-10-02T18:05:03.221Z,68.24
2022-10-02T18:08:00.512Z,68.30
2022-10-02T18:10:41.782Z,68.50
2022-10-02T18:13:28.999Z,68.69
2022-10-02T18:16:18.850Z,68.64
2022-10-02T18:19:18.305Z,68.63
2022-10-02T18:22:01.437Z,68.85
2022-10-02T18:24:49.305Z,68.71
2022-10-02T18:27:49.020Z,69.26
2022-10-02T18:30:23.081Z,69.17
2022-10-02T18:33:34.207Z,69.24
2022-10-02T18:36:22.687Z,69.25
2022-10-02T18:39:00.651Z,69.06
2022-10-02T18:41:56.640Z,69.13
2022-10-02T18:44:55.361Z,69.35
2022-10-02T18:47:42.971Z,69.28
2022-10-02T18:50:36.069Z,69.64
2022-10-02T18:53:30.708Z,69.63
2022-10-02T18:56:07.599Z,69.61
2022-10-02T18:58:58.017Z,69.77
2022-10-02T19:01:53.986Z,70.04
2022-10-02T19:04:53.465Z,70.18
2022-10-02T19:07:30.685Z,70.47
2022-10-02T19:10:26.421Z,70.34
2022-10-02T19:13:04.987Z,71.04
2022-10-02T19:15:39.336Z,71.17
2022-10-02T19:18:19.093Z,71.21
2022-10-02T19:20:59.869Z,71.59
2022-10-02T19:23:36.729Z,72.19
2022-10-02T19:26:19.082Z,72.03
2022-10-02T19:28:55.157Z,72.36
2022-10-02T19:31:31.593Z,72.16
2022-10-02T19:34:12.539Z,72.81
2022-10-02T19:36:50.641Z,72.53
2022-10-02T19:39:27.687Z,72.43
2022-10-02T19:42:03.377Z,72.83
2022-10-02T19:44:42.046Z,72.48
2022-10-02T19:47:20.613Z,72.65
2022-10-02T19:49:59.028Z,72.81
2022-10-02T19:52:36.974Z,72.78
2022-10-02T19:55:24.173Z,72.90
2022-10-02T19:58:01.609Z,72.95
2022-10-02T20:00:38.707Z,73.07
2022-10-02T20:03:21.414Z,72.68
2022-10-02T20:05:58.423Z,73.06
2022-10-02T20:08:36.455Z,72.76
2022-10-02T20:11:15.983Z,72.92
2022-10-02T20:13:52.842Z,72.76
2022-10-02T20:16:44.783Z,72.91
2022-10-02T20:19:22.350Z,72.68
2022-10-02T20:21:57.058Z,72.93
2022-10-02T20:24:38.111Z,73.30
2022-10-02T20:27:17.461Z,74.04
2022-10-02T20:29:56.639Z,73.92
2022-10-02T20:32:39.047Z,73.80
2022-10-02T20:35:21.513Z,74.38
2022-10-02T20:38:04.624Z,74.16
2022-10-02T20:40:42.185Z,74.31
2022-10-02T20:43:21.264Z,74.18
2022-10-02T20:46:23.075Z,74.42
2022-10-02T20:49:09.931Z,74.67
2022-10-02T20:52:27.504Z,74.74
2022-10-02T20:55:07.971Z,75.17
2022-10-02T20:58:12.511Z,74.95
2022-10-02T21:00:59.889Z,75.08
2022-10-02T21:03:50.636Z,75.51
2022-10-02T21:06:47.907Z,75.61
2022-10-02T21:09:59.808Z,75.63
2022-10-02T21:13:24.895Z,75.78
2022-10-02T21:16:27.036Z,76.04
2022-10-02T21:19:33.244Z,76.27
2022-10-02T21:22:48.206Z,76.56
2022-10-02T21:25:54.865Z,76.73
2022-10-02T21:28:58.208Z,76.87
2022-10-02T21:32:00.106Z,76.91
2022-10-02T21:34:50.449Z,77.16
2022-10-02T21:37:29.434Z,77.48
2022-10-02T21:40:30.571Z,77.31
2022-10-02T21:43:33.611Z,77.39
2022-10-02T21:46:41.414Z,77.33
2022-10-02T21:50:05.028Z,77.11
2022-10-02T21:53:25.130Z,77.47
2022-10-02T22:00:15.919Z,77.65
2022-10-02T22:03:14.936Z,78.19
2022-10-02T22:06:29.424Z,78.07
2022-10-02T22:09:19.762Z,78.20
2022-10-02T22:12:05.286Z,78.34
2022-10-02T22:14:41.552Z,78.31
2022-10-02T22:17:27.203Z,78.06
2022-10-02T22:23:40.329Z,78.41
2022-10-02T22:26:30.126Z,78.41
2022-10-02T22:29:12.291Z,78.16
2022-10-02T22:32:22.595Z,78.31
2022-10-02T22:35:10.295Z,78.50
2022-10-02T22:38:05.461Z,77.34
2022-10-02T22:40:48.597Z,77.39
2022-10-02T22:43:30.218Z,77.67
2022-10-02T22:46:08.193Z,78.06
2022-10-02T22:48:48.425Z,78.55
2022-10-02T22:51:28.644Z,79.26
2022-10-02T22:54:07.143Z,79.42
2022-10-02T22:56:45.706Z,80.09
2022-10-02T22:59:25.639Z,80.19
2022-10-02T23:02:05.491Z,80.45
2022-10-02T23:05:11.247Z,80.17
2022-10-02T23:07:50.761Z,80.82
2022-10-02T23:10:30.549Z,81.06
2022-10-02T23:13:07.520Z,81.13
2022-10-02T23:15:53.501Z,81.15
2022-10-02T23:18:36.040Z,81.48
2022-10-02T23:21:24.361Z,81.74
2022-10-02T23:24:06.938Z,81.91
2022-10-02T23:26:48.215Z,82.03
2022-10-02T23:29:29.509Z,82.32
2022-10-02T23:32:08.063Z,82.45
2022-10-02T23:34:44.963Z,82.50
2022-10-02T23:37:24.009Z,82.69
2022-10-02T23:40:11.142Z,82.69
2022-10-02T23:42:50.415Z,82.65
2022-10-02T23:45:28.641Z,82.63
2022-10-02T23:48:05.994Z,82.29
2022-10-02T23:50:51.639Z,81.96
2022-10-02T23:53:51.958Z,81.51
2022-10-02T23:56:44.546Z,81.74
2022-10-02T23:59:37.238Z,81.88
